Thunderstorms From: 21-05-2018 15:00 Until: 22-05-2018 15:00 warning for: Thunderstorms Level: Yellow info button

Although rather usual in this region, locally or potentially dangerous phenomena are expected. (such as local winds, summer thunderstorms, rising streams or high waves) Be aware and pay attention to the latest weather updates, especially if you carry out activities exposed to weather or close to a stream or shoreline. 


Meteo18 Weather Cam more information Meteo18 Weather Cam


warning for Thunderstorms more information blitzortung!


Rain radar more information rain snow radar


Visit our other weather sites:

Template documentation
and downloads

And another site



Weather Underground History page Text

Daily Summary for May 10, 2017 Units:  Metric    English   Both
« Previous Day
Next Day »
Daily Weekly Monthly Yearly Custom
  High: Low: Average:
Temperature: -17.8 °C -15.4 °C -9.9 °C
Dew Point: -17.8 °C -16.4 °C -13.5 °C
Humidity: Humidity % 42 % 67 %
Wind Speed: 0 km/h 0 km/h 5.3 km/h
Wind Gust: 0 km/h - -
Wind:- - ESE
Pressure: 0 hPa 33924.3 hPa -
Precipitation: 0 mm    
Historical Graphs
 
 
Tabular Data for May 10, 2017
Time Temperature Dew Point Pressure Wind Wind Speed Wind Gust Humidity Rainfall Rate (Hourly)
-17.8 °C -17.8 °C 0 hPa Calm     Humidity % 0 mm
00:02 -12.5 °C -14.7 °C 34269.7 hPa NNE 18.2 km/h 25.9 km/h 76 % 0 mm
00:07 -12.6 °C -14.8 °C 34256.2 hPa NE 10.3 km/h 20.8 km/h 76 % 0 mm
00:12 -12.6 °C -14.8 °C 34269.7 hPa NE 7.7 km/h 20.8 km/h 76 % 0 mm
00:17 -12.7 °C -14.8 °C 34256.2 hPa NE 10.3 km/h 20.8 km/h 77 % 0 mm
00:22 -12.7 °C -14.7 °C 34269.7 hPa NE 5.1 km/h 20.8 km/h 78 % 0 mm
00:27 -12.8 °C -14.8 °C 34269.7 hPa NE 7.7 km/h 20.8 km/h 78 % 0 mm
00:32 -12.8 °C -14.8 °C 34256.2 hPa NE 10.3 km/h 20.8 km/h 78 % 0 mm
00:37 -12.9 °C -14.8 °C 34256.2 hPa NE 7.7 km/h 28.5 km/h 79 % 0 mm
00:42 -13 °C -14.9 °C 34256.2 hPa ENE 10.3 km/h 28.5 km/h 79 % 0 mm
00:47 -13 °C -14.8 °C 34256.2 hPa NE 12.9 km/h 28.5 km/h 80 % 0 mm
00:52 -13.1 °C -14.9 °C 34256.2 hPa NNE 20.8 km/h 25.9 km/h 80 % 0 mm
00:57 -13.1 °C -14.9 °C 34256.2 hPa NE 15.6 km/h 28.5 km/h 80 % 0 mm
01:02 -13.1 °C -14.9 °C 34256.2 hPa NE 15.6 km/h 28.5 km/h 80 % 0 mm
01:07 -13.1 °C -14.9 °C 34256.2 hPa NNE 20.8 km/h 25.9 km/h 80 % 0 mm
01:12 -13.1 °C -14.9 °C 34256.2 hPa NNE 18.2 km/h 25.9 km/h 80 % 0 mm
01:17 -13.1 °C -14.9 °C 34256.2 hPa NE 12.9 km/h 25.9 km/h 80 % 0 mm
01:22 -13.2 °C -14.9 °C 34246 hPa NE 5.1 km/h 23.3 km/h 80 % 0 mm
01:27 -13.2 °C -14.9 °C 34246 hPa NNE 12.9 km/h 23.3 km/h 81 % 0 mm
01:32 -13.2 °C -14.9 °C 34246 hPa NNE 18.2 km/h 23.3 km/h 81 % 0 mm
01:37 -13.2 °C -14.9 °C 34246 hPa ENE 12.9 km/h 23.3 km/h 81 % 0 mm
01:42 -13.3 °C -15 °C 34246 hPa NE 12.9 km/h 25.9 km/h 81 % 0 mm
01:47 -13.3 °C -15 °C 34246 hPa NNE 12.9 km/h 25.9 km/h 81 % 0 mm
01:52 -13.3 °C -14.9 °C 34246 hPa NE 20.8 km/h 20.8 km/h 82 % 0 mm
01:57 -13.4 °C -15 °C 34235.8 hPa NE 10.3 km/h 23.3 km/h 82 % 0 mm
02:02 -13.4 °C -15.1 °C 34235.8 hPa NNE 7.7 km/h 23.3 km/h 82 % 0 mm
02:12 -13.5 °C -15.1 °C 34235.8 hPa ENE 7.7 km/h 18.2 km/h 82 % 0 mm
02:17 -13.5 °C -15.1 °C 34235.8 hPa NE 7.7 km/h 18.2 km/h 82 % 0 mm
02:22 -13.6 °C -15.2 °C 34222.3 hPa NNE 10.3 km/h 18.2 km/h 82 % 0 mm
02:27 -13.6 °C -15.2 °C 34222.3 hPa NE 12.9 km/h 15.6 km/h 82 % 0 mm
02:32 -13.4 °C -15.2 °C 34222.3 hPa NNE 5.1 km/h 20.8 km/h 81 % 0 mm
02:42 -13.4 °C -15.2 °C 34222.3 hPa ENE 10.3 km/h 20.8 km/h 80 % 0 mm
02:47 -13.4 °C -15.2 °C 34212.1 hPa NNE 12.9 km/h 18.2 km/h 80 % 0 mm
02:57 -13.4 °C -15.2 °C 34212.1 hPa NE 10.3 km/h 18.2 km/h 80 % 0 mm
03:02 -13.4 °C -15.3 °C 34212.1 hPa NE 10.3 km/h 18.2 km/h 79 % 0 mm
03:07 -13.4 °C -15.3 °C 34212.1 hPa NE 7.7 km/h 18.2 km/h 79 % 0 mm
03:12 -13.5 °C -15.4 °C 34212.1 hPa NE 5.1 km/h 15.6 km/h 79 % 0 mm
03:17 -13.6 °C -15.4 °C 34212.1 hPa ENE 5.1 km/h 15.6 km/h 79 % 0 mm
03:22 -13.6 °C -15.3 °C 34212.1 hPa NE 5.1 km/h 15.6 km/h 80 % 0 mm
03:27 -13.7 °C -15.4 °C 34198.6 hPa NNE 5.1 km/h 10.3 km/h 80 % 0 mm
03:32 -13.7 °C -15.5 °C 34198.6 hPa NE 5.1 km/h 10.3 km/h 80 % 0 mm
03:37 -13.8 °C -15.5 °C 34198.6 hPa Calm   7.7 km/h 81 % 0 mm
03:42 -14 °C -15.6 °C 34198.6 hPa North 2.6 km/h 7.7 km/h 82 % 0 mm
03:47 -14.1 °C -15.7 °C 34198.6 hPa Calm   5.1 km/h 82 % 0 mm
03:52 -14.1 °C -15.7 °C 34198.6 hPa Calm   7.7 km/h 82 % 0 mm
03:57 -14.1 °C -15.6 °C 34198.6 hPa Calm   7.7 km/h 83 % 0 mm
04:02 -14.2 °C -15.7 °C 34198.6 hPa NNW 2.6 km/h 7.7 km/h 83 % 0 mm
04:07 -14.2 °C -15.7 °C 34198.6 hPa Calm   7.7 km/h 83 % 0 mm
04:12 -14.3 °C -15.8 °C 34198.6 hPa Calm   5.1 km/h 83 % 0 mm
04:17 -14.4 °C -15.8 °C 34188.4 hPa Calm   5.1 km/h 84 % 0 mm
04:22 -14.4 °C -15.8 °C 34188.4 hPa North 7.7 km/h 7.7 km/h 84 % 0 mm
04:27 -14.5 °C -15.9 °C 34188.4 hPa North 2.6 km/h 10.3 km/h 84 % 0 mm
04:32 -14.6 °C -15.8 °C 34188.4 hPa NE 5.1 km/h 10.3 km/h 85 % 0 mm
04:37 -14.6 °C -15.8 °C 34178.3 hPa Calm   7.7 km/h 85 % 0 mm
04:42 -14.6 °C -15.9 °C 34188.4 hPa Calm   7.7 km/h 85 % 0 mm
04:47 -14.7 °C -16.1 °C 34178.3 hPa Calm   7.7 km/h 84 % 0 mm
04:52 -14.9 °C -16.2 °C 34178.3 hPa Calm   7.7 km/h 85 % 0 mm
04:57 -14.9 °C -16.1 °C 34178.3 hPa NW 2.6 km/h 2.6 km/h 86 % 0 mm
05:02 -15.1 °C -16.2 °C 34178.3 hPa NW 2.6 km/h 2.6 km/h 87 % 0 mm
05:12 -15.1 °C -16.3 °C 34178.3 hPa NW 2.6 km/h 2.6 km/h 86 % 0 mm
05:17 -15.2 °C -16.2 °C 34164.7 hPa NW 2.6 km/h 5.1 km/h 89 % 0 mm
05:27 -15.1 °C -16.1 °C 34154.6 hPa Calm   5.1 km/h 88 % 0 mm
05:32 -15.2 °C -16.2 °C 34154.6 hPa North 2.6 km/h 5.1 km/h 88 % 0 mm
05:37 -15.2 °C -16.2 °C 34154.6 hPa Calm   7.7 km/h 88 % 0 mm
05:42 -15.3 °C -16.3 °C 34154.6 hPa Calm   7.7 km/h 88 % 0 mm
05:47 -15.4 °C -16.4 °C 34154.6 hPa Calm   7.7 km/h 89 % 0 mm
05:52 -15.4 °C -16.2 °C 34154.6 hPa NW 2.6 km/h 7.7 km/h 90 % 0 mm
05:57 -15.2 °C -16.2 °C 34154.6 hPa NW 2.6 km/h 5.1 km/h 89 % 0 mm
06:02 -15.2 °C -16.2 °C 34154.6 hPa Calm   5.1 km/h 88 % 0 mm
06:12 -15.3 °C -16.3 °C 34144.4 hPa NW 2.6 km/h 5.1 km/h 89 % 0 mm
06:17 -15.3 °C -16.3 °C 34144.4 hPa Calm   2.6 km/h 89 % 0 mm
06:22 -15.2 °C -16.2 °C 34144.4 hPa Calm   2.6 km/h 89 % 0 mm
06:32 -15.2 °C -16.2 °C 34144.4 hPa Calm   2.6 km/h 89 % 0 mm
06:42 -15.1 °C -16.1 °C 34144.4 hPa Calm   2.6 km/h 89 % 0 mm
06:52 -14.9 °C -15.9 °C 34144.4 hPa Calm   2.6 km/h 88 % 0 mm
07:02 -14.8 °C -15.9 °C 34144.4 hPa NNE 2.6 km/h 2.6 km/h 87 % 0 mm
07:07 -14.6 °C -15.7 °C 34130.9 hPa Calm   5.1 km/h 87 % 0 mm
07:12 -14.5 °C -15.8 °C 34130.9 hPa Calm   5.1 km/h 85 % 0 mm
07:17 -14.5 °C -15.8 °C 34130.9 hPa Calm   2.6 km/h 85 % 0 mm
07:22 -14.6 °C -15.8 °C 34130.9 hPa Calm   2.6 km/h 85 % 0 mm
07:32 -14.3 °C -15.5 °C 34130.9 hPa Calm   5.1 km/h 86 % 0 mm
07:37 -14.2 °C -15.6 °C 34130.9 hPa NE 5.1 km/h 5.1 km/h 84 % 0 mm
07:42 -14.1 °C -15.5 °C 34130.9 hPa NNE 7.7 km/h 7.7 km/h 84 % 0 mm
07:47 -14.1 °C -15.5 °C 34130.9 hPa East 5.1 km/h 12.9 km/h 84 % 0 mm
07:52 -13.9 °C -15.3 °C 34130.9 hPa NE 7.7 km/h 12.9 km/h 84 % 0 mm
07:57 -13.8 °C -15.3 °C 34130.9 hPa NE 5.1 km/h 15.6 km/h 83 % 0 mm
08:02 -13.7 °C -15.3 °C 34130.9 hPa East 2.6 km/h 15.6 km/h 82 % 0 mm
08:07 -13.5 °C -15.2 °C 34130.9 hPa Calm   12.9 km/h 81 % 0 mm
08:12 -13.4 °C -15.3 °C 34130.9 hPa East 2.6 km/h 12.9 km/h 79 % 0 mm
08:17 -13.3 °C -15.1 °C 34130.9 hPa ENE 7.7 km/h 7.7 km/h 80 % 0 mm
08:22 -13.2 °C -14.9 °C 34120.7 hPa Calm   7.7 km/h 81 % 0 mm
08:27 -13.2 °C -14.9 °C 34120.7 hPa NNE 5.1 km/h 7.7 km/h 80 % 0 mm
08:32 -13.1 °C -14.9 °C 34120.7 hPa NE 5.1 km/h 7.7 km/h 80 % 0 mm
08:37 -13.1 °C -14.8 °C 34120.7 hPa ENE 5.1 km/h 12.9 km/h 81 % 0 mm
08:42 -12.9 °C -14.8 °C 34120.7 hPa NE 7.7 km/h 12.9 km/h 80 % 0 mm
08:52 -12.8 °C -14.5 °C 34107.2 hPa Calm   15.6 km/h 81 % 0 mm
08:57 -12.6 °C -14.6 °C 34107.2 hPa NE 5.1 km/h 12.9 km/h 79 % 0 mm
09:02 -12.4 °C -14.4 °C 34107.2 hPa NE 5.1 km/h 12.9 km/h 78 % 0 mm
09:12 -12.1 °C -14.4 °C 34107.2 hPa East 5.1 km/h 10.3 km/h 75 % 0 mm
09:17 -12.1 °C -14.3 °C 34107.2 hPa NE 7.7 km/h 12.9 km/h 76 % 0 mm
09:22 -11.8 °C -14.2 °C 34107.2 hPa East 5.1 km/h 12.9 km/h 75 % 0 mm
09:27 -11.6 °C -14.1 °C 34107.2 hPa ENE 7.7 km/h 12.9 km/h 74 % 0 mm
09:32 -11.3 °C -14.2 °C 34107.2 hPa ESE 12.9 km/h 12.9 km/h 71 % 0 mm
09:42 -11.4 °C -14.4 °C 34107.2 hPa Calm   23.3 km/h 69 % 0 mm
09:47 -11.3 °C -14.3 °C 34107.2 hPa East 7.7 km/h 23.3 km/h 69 % 0 mm
09:52 -11.3 °C -14.2 °C 34107.2 hPa East 7.7 km/h 23.3 km/h 70 % 0 mm
09:57 -11.2 °C -14.2 °C 34107.2 hPa East 2.6 km/h 20.8 km/h 69 % 0 mm
10:02 -11 °C -14.1 °C 34107.2 hPa East 7.7 km/h 20.8 km/h 69 % 0 mm
10:12 -10.7 °C -14.1 °C 34097 hPa NE 7.7 km/h 23.3 km/h 67 % 0 mm
10:17 -10.5 °C -13.7 °C 34097 hPa East 5.1 km/h 23.3 km/h 68 % 0 mm
10:22 -10.4 °C -13.8 °C 34097 hPa SSE 5.1 km/h 23.3 km/h 67 % 0 mm
10:32 -10.4 °C -13.6 °C 34086.9 hPa East 12.9 km/h 18.2 km/h 68 % 0 mm
10:37 -10.2 °C -13.3 °C 34086.9 hPa ENE 5.1 km/h 18.2 km/h 69 % 0 mm
10:42 -9.9 °C -13 °C 34086.9 hPa SE 5.1 km/h 18.2 km/h 69 % 0 mm
10:47 -9.7 °C -13.4 °C 34086.9 hPa ESE 10.3 km/h 23.3 km/h 64 % 0 mm
10:52 -9.7 °C -13.6 °C 34086.9 hPa ESE 2.6 km/h 23.3 km/h 63 % 0 mm
10:57 -9.6 °C -13.2 °C 34086.9 hPa SE 7.7 km/h 12.9 km/h 65 % 0 mm
11:02 -9.6 °C -13.6 °C 34086.9 hPa East 10.3 km/h 12.9 km/h 62 % 0 mm
11:07 -9.5 °C -13.3 °C 34073.3 hPa ENE 10.3 km/h 25.9 km/h 64 % 0 mm
11:12 -9.4 °C -13.6 °C 34086.9 hPa East 18.2 km/h 25.9 km/h 61 % 0 mm
11:17 -9.2 °C -13.4 °C 34073.3 hPa East 10.3 km/h 25.9 km/h 61 % 0 mm
11:22 -9 °C -12.9 °C 34086.9 hPa ENE 5.1 km/h 25.9 km/h 63 % 0 mm
11:32 -8.7 °C -13.1 °C 34086.9 hPa SE 10.3 km/h 23.3 km/h 59 % 0 mm
11:37 -8.6 °C -13.2 °C 34073.3 hPa East 12.9 km/h 15.6 km/h 58 % 0 mm
11:42 -8.7 °C -13.3 °C 34073.3 hPa ESE 10.3 km/h 18.2 km/h 58 % 0 mm
11:47 -8.4 °C -13.1 °C 34073.3 hPa SE 15.6 km/h 20.8 km/h 58 % 0 mm
11:52 -8.3 °C -13.1 °C 34073.3 hPa East 7.7 km/h 23.3 km/h 57 % 0 mm
11:57 -8.3 °C -12.8 °C 34073.3 hPa SE 2.6 km/h 23.3 km/h 59 % 0 mm
12:02 -8.2 °C -13.2 °C 34073.3 hPa ESE 10.3 km/h 23.3 km/h 56 % 0 mm
12:07 -8.1 °C -12.6 °C 34073.3 hPa ESE 2.6 km/h 18.2 km/h 59 % 0 mm
12:12 -8.1 °C -13.5 °C 34063.2 hPa Calm   18.2 km/h 53 % 0 mm
12:17 -8.1 °C -13.2 °C 34063.2 hPa NE 5.1 km/h 20.8 km/h 55 % 0 mm
12:22 -7.9 °C -13.1 °C 34063.2 hPa ESE 12.9 km/h 20.8 km/h 55 % 0 mm
12:32 -7.9 °C -12.7 °C 34063.2 hPa East 12.9 km/h 18.2 km/h 57 % 0 mm
12:42 -7.8 °C -13.2 °C 34063.2 hPa SE 2.6 km/h 20.8 km/h 53 % 0 mm
12:47 -7.6 °C -12.9 °C 34049.6 hPa NE 2.6 km/h 20.8 km/h 54 % 0 mm
12:52 -7.6 °C -12.5 °C 34049.6 hPa SE 10.3 km/h 20.8 km/h 56 % 0 mm
12:57 -7.5 °C -12.6 °C 34049.6 hPa SSE 10.3 km/h 18.2 km/h 55 % 0 mm
13:02 -7.3 °C -12.2 °C 34049.6 hPa East 5.1 km/h 20.8 km/h 57 % 0 mm
13:07 -7.4 °C -12.5 °C 34049.6 hPa East 5.1 km/h 20.8 km/h 55 % 0 mm
13:12 -7.1 °C -12.1 °C 34049.6 hPa ESE 2.6 km/h 20.8 km/h 56 % 0 mm
13:17 -7.1 °C -12.6 °C 34049.6 hPa SE 2.6 km/h 20.8 km/h 53 % 0 mm
13:22 -7.3 °C -12.4 °C 34039.5 hPa ESE 5.1 km/h 25.9 km/h 55 % 0 mm
13:27 -7.1 °C -12.7 °C 34039.5 hPa SE 7.7 km/h 25.9 km/h 52 % 0 mm
13:32 -7.1 °C -12.7 °C 34039.5 hPa ESE 7.7 km/h 25.9 km/h 52 % 0 mm
13:37 -7 °C -12.8 °C 34039.5 hPa ENE 5.1 km/h 20.8 km/h 51 % 0 mm
13:42 -6.9 °C -12.6 °C 34029.3 hPa ENE 10.3 km/h 20.8 km/h 52 % 0 mm
13:47 -6.8 °C -12.1 °C 34039.5 hPa East 2.6 km/h 18.2 km/h 54 % 0 mm
13:52 -6.6 °C -12.4 °C 34029.3 hPa Calm   18.2 km/h 51 % 0 mm
13:57 -6.7 °C -12.6 °C 34029.3 hPa SSE 12.9 km/h 15.6 km/h 50 % 0 mm
14:02 -6.7 °C -12.5 °C 34029.3 hPa ENE 15.6 km/h 15.6 km/h 51 % 0 mm
14:12 -6.4 °C -12.9 °C 34029.3 hPa SSE 5.1 km/h 18.2 km/h 47 % 0 mm
14:17 -6.3 °C -12.3 °C 34029.3 hPa SE 10.3 km/h 18.2 km/h 50 % 0 mm
14:22 -6.3 °C -12.8 °C 34029.3 hPa WSW 5.1 km/h 20.8 km/h 47 % 0 mm
14:27 -6.2 °C -11.8 °C 34029.3 hPa Calm   20.8 km/h 52 % 0 mm
14:32 -6 °C -13.1 °C 34029.3 hPa Calm   20.8 km/h 44 % 0 mm
14:42 -5.9 °C -12.3 °C 34015.8 hPa SSE 18.2 km/h 28.5 km/h 48 % 0 mm
14:47 -6 °C -12.2 °C 34015.8 hPa SSW 7.7 km/h 28.5 km/h 49 % 0 mm
14:52 -6.1 °C -12.4 °C 34015.8 hPa South 12.9 km/h 28.5 km/h 48 % 0 mm
14:57 -6.2 °C -13.1 °C 34015.8 hPa South 10.3 km/h 28.5 km/h 45 % 0 mm
15:02 -6.2 °C -12.7 °C 34015.8 hPa SSE 10.3 km/h 28.5 km/h 47 % 0 mm
15:07 -6.3 °C -12.6 °C 34005.6 hPa ESE 10.3 km/h 28.5 km/h 48 % 0 mm
15:12 -6.2 °C -12.7 °C 34005.6 hPa SSE 5.1 km/h 28.5 km/h 47 % 0 mm
15:17 -6.1 °C -12.8 °C 34005.6 hPa SE 5.1 km/h 25.9 km/h 46 % 0 mm
15:22 -5.9 °C -12.8 °C 34005.6 hPa SE 5.1 km/h 15.6 km/h 45 % 0 mm
15:32 -6 °C -11.8 °C 34005.6 hPa ENE 5.1 km/h 18.2 km/h 51 % 0 mm
15:42 -6 °C -12.3 °C 34005.6 hPa South 5.1 km/h 18.2 km/h 48 % 0 mm
15:47 -6.2 °C -12.3 °C 34005.6 hPa East 5.1 km/h 15.6 km/h 49 % 0 mm
15:57 -6.1 °C -11.6 °C 33992.1 hPa ENE 5.1 km/h 15.6 km/h 53 % 0 mm
16:02 -6.1 °C -11.6 °C 33992.1 hPa East 7.7 km/h 15.6 km/h 53 % 0 mm
16:07 -6.1 °C -12.1 °C 33992.1 hPa East 2.6 km/h 15.6 km/h 50 % 0 mm
16:12 -6.1 °C -12.1 °C 33992.1 hPa ENE 7.7 km/h 15.6 km/h 50 % 0 mm
16:17 -6.2 °C -12.4 °C 33992.1 hPa East 2.6 km/h 20.8 km/h 49 % 0 mm
16:22 -6.2 °C -12.3 °C 33992.1 hPa Calm   20.8 km/h 49 % 0 mm
16:32 -6 °C -12 °C 33992.1 hPa ENE 5.1 km/h 15.6 km/h 50 % 0 mm
16:42 -5.7 °C -11.4 °C 33981.9 hPa SE 2.6 km/h 10.3 km/h 52 % 0 mm
16:47 -5.7 °C -11.8 °C 33981.9 hPa ENE 10.3 km/h 18.2 km/h 50 % 0 mm
16:52 -5.9 °C -11.3 °C 33981.9 hPa East 5.1 km/h 18.2 km/h 54 % 0 mm
16:57 -5.8 °C -11.6 °C 33981.9 hPa East 2.6 km/h 18.2 km/h 52 % 0 mm
17:02 -5.7 °C -11.2 °C 33981.9 hPa Calm   15.6 km/h 53 % 0 mm
17:07 -5.6 °C -11.3 °C 33981.9 hPa ESE 7.7 km/h 12.9 km/h 52 % 0 mm
17:12 -5.6 °C -11.3 °C 33981.9 hPa SSE 2.6 km/h 18.2 km/h 52 % 0 mm
17:17 -5.6 °C -11.4 °C 33981.9 hPa ESE 5.1 km/h 18.2 km/h 51 % 0 mm
17:22 -5.6 °C -11.5 °C 33981.9 hPa ESE 10.3 km/h 12.9 km/h 51 % 0 mm
17:27 -5.7 °C -11.1 °C 33971.7 hPa East 2.6 km/h 12.9 km/h 54 % 0 mm
17:32 -5.7 °C -11.2 °C 33971.7 hPa Calm   12.9 km/h 53 % 0 mm
17:37 -5.6 °C -11.7 °C 33971.7 hPa Calm   12.9 km/h 50 % 0 mm
17:42 -5.5 °C -11.7 °C 33971.7 hPa SW 2.6 km/h 12.9 km/h 49 % 0 mm
17:47 -5.4 °C -11.8 °C 33971.7 hPa SW 10.3 km/h 12.9 km/h 48 % 0 mm
17:52 -5.5 °C -12.4 °C 33971.7 hPa SE 5.1 km/h 15.6 km/h 45 % 0 mm
17:57 -5.5 °C -12.6 °C 33971.7 hPa South 5.1 km/h 18.2 km/h 44 % 0 mm
18:02 -5.4 °C -12.8 °C 33971.7 hPa South 12.9 km/h 18.2 km/h 43 % 0 mm
18:12 -5.6 °C -12.9 °C 33971.7 hPa SE 5.1 km/h 15.6 km/h 43 % 0 mm
18:17 -5.6 °C -12.6 °C 33958.2 hPa Calm   18.2 km/h 45 % 0 mm
18:22 -5.6 °C -12.9 °C 33958.2 hPa WSW 2.6 km/h 18.2 km/h 43 % 0 mm
18:27 -5.4 °C -12.6 °C 33958.2 hPa WSW 5.1 km/h 7.7 km/h 44 % 0 mm
18:32 -5.4 °C -12.8 °C 33958.2 hPa West 2.6 km/h 7.7 km/h 43 % 0 mm
18:37 -5.3 °C -12.4 °C 33958.2 hPa WSW 7.7 km/h 10.3 km/h 44 % 0 mm
18:42 -5.4 °C -12.5 °C 33958.2 hPa SW 5.1 km/h 10.3 km/h 44 % 0 mm
18:47 -5.3 °C -12.4 °C 33958.2 hPa Calm   10.3 km/h 44 % 0 mm
18:52 -5.1 °C -12.4 °C 33958.2 hPa WNW 5.1 km/h 10.3 km/h 43 % 0 mm
18:57 -5.3 °C -12.8 °C 33948 hPa SW 5.1 km/h 7.7 km/h 42 % 0 mm
19:02 -5.4 °C -12.3 °C 33948 hPa Calm   7.7 km/h 45 % 0 mm
19:07 -5.4 °C -12.5 °C 33948 hPa Calm   7.7 km/h 44 % 0 mm
19:12 -5.5 °C -12.4 °C 33948 hPa Calm   5.1 km/h 45 % 0 mm
19:17 -5.7 °C -12.4 °C 33948 hPa Calm     46 % 0 mm
19:22 -5.7 °C -12.8 °C 33937.9 hPa Calm     44 % 0 mm
19:27 -5.8 °C -12.7 °C 33937.9 hPa Calm     45 % 0 mm
19:37 -6 °C -12.3 °C 33937.9 hPa Calm     48 % 0 mm
19:42 -6.1 °C -12.1 °C 33937.9 hPa Calm     50 % 0 mm
19:47 -6.1 °C -12.4 °C 33937.9 hPa Calm     48 % 0 mm
19:52 -6.1 °C -12.6 °C 33937.9 hPa Calm     47 % 0 mm
19:57 -6.2 °C -12.3 °C 33937.9 hPa Calm     49 % 0 mm
20:02 -6.3 °C -12.6 °C 33937.9 hPa Calm     48 % 0 mm
20:07 -6.3 °C -12.5 °C 33937.9 hPa Calm     49 % 0 mm
20:12 -6.4 °C -12.7 °C 33937.9 hPa Calm     48 % 0 mm
20:17 -6.4 °C -12.4 °C 33937.9 hPa Calm     50 % 0 mm
20:22 -6.4 °C -12.1 °C 33937.9 hPa Calm     52 % 0 mm
20:27 -6.3 °C -11.9 °C 33937.9 hPa Calm     52 % 0 mm
20:32 -6.3 °C -12.4 °C 33924.3 hPa Calm     49 % 0 mm
20:37 -6.5 °C -11.7 °C 33924.3 hPa Calm     55 % 0 mm
20:47 -7.1 °C -10.9 °C 33937.9 hPa SSE 10.3 km/h 10.3 km/h 64 % 0 mm
20:52 -7.3 °C -11.1 °C 33937.9 hPa East 7.7 km/h 10.3 km/h 65 % 0 mm
20:57 -7.6 °C -11.4 °C 33937.9 hPa East 7.7 km/h 18.2 km/h 64 % 0 mm
21:02 -7.7 °C -11.3 °C 33937.9 hPa ENE 15.6 km/h 18.2 km/h 66 % 0 mm
21:07 -7.9 °C -11.2 °C 33937.9 hPa NE 5.1 km/h 18.2 km/h 69 % 0 mm
21:12 -8.2 °C -11 °C 33937.9 hPa NE 7.7 km/h 15.6 km/h 72 % 0 mm
21:17 -8.4 °C -10.9 °C 33937.9 hPa ENE 7.7 km/h 15.6 km/h 75 % 0 mm
21:22 -8.4 °C -10.9 °C 33937.9 hPa ENE 2.6 km/h 15.6 km/h 75 % 0 mm
21:27 -8.5 °C -10.9 °C 33937.9 hPa ENE 2.6 km/h 15.6 km/h 76 % 0 mm
21:32 -8.4 °C -11.1 °C 33948 hPa SSW 5.1 km/h 31.1 km/h 74 % 0 mm
21:37 -7.9 °C -11.4 °C 33948 hPa SW 18.2 km/h 31.1 km/h 67 % 0 mm
21:42 -7.9 °C -11.3 °C 33948 hPa West 5.1 km/h 31.1 km/h 68 % 0 mm
21:47 -8 °C -11.1 °C 33948 hPa West 7.7 km/h 23.3 km/h 70 % 0 mm
21:52 -8.1 °C -11.1 °C 33948 hPa West 7.7 km/h 18.2 km/h 71 % 0 mm
21:57 -8.2 °C -11 °C 33948 hPa West 5.1 km/h 15.6 km/h 72 % 0 mm
22:02 -8.2 °C -11.1 °C 33948 hPa West 2.6 km/h 10.3 km/h 72 % 0 mm
22:07 -8.3 °C -11.1 °C 33948 hPa West 5.1 km/h 10.3 km/h 73 % 0 mm
22:12 -8.4 °C -11 °C 33948 hPa West 5.1 km/h 12.9 km/h 74 % 0 mm
22:17 -8.4 °C -11.1 °C 33948 hPa WSW 5.1 km/h 12.9 km/h 74 % 0 mm
22:22 -8.5 °C -11.1 °C 33948 hPa WSW 2.6 km/h 12.9 km/h 74 % 0 mm
22:27 -8.5 °C -11.1 °C 33948 hPa WSW 5.1 km/h 12.9 km/h 74 % 0 mm
22:32 -8.6 °C -11.2 °C 33948 hPa Calm   7.7 km/h 74 % 0 mm
22:37 -8.6 °C -11.2 °C 33948 hPa West 2.6 km/h 7.7 km/h 74 % 0 mm
22:42 -8.6 °C -11.2 °C 33948 hPa Calm   5.1 km/h 74 % 0 mm
22:47 -8.6 °C -11.2 °C 33948 hPa Calm   2.6 km/h 74 % 0 mm
22:52 -8.7 °C -11.2 °C 33948 hPa Calm   2.6 km/h 74 % 0 mm
22:57 -8.7 °C -11.2 °C 33948 hPa Calm   2.6 km/h 75 % 0 mm
23:02 -8.8 °C -11.1 °C 33948 hPa Calm   2.6 km/h 76 % 0 mm
23:07 -8.9 °C -11.1 °C 33948 hPa Calm   5.1 km/h 78 % 0 mm
23:12 -9.1 °C -11 °C 33948 hPa Calm   5.1 km/h 80 % 0 mm
23:17 -9.3 °C -11.1 °C 33948 hPa Calm   5.1 km/h 81 % 0 mm
23:22 -9.4 °C -11.1 °C 33948 hPa Calm   5.1 km/h 83 % 0 mm
23:32 -9.8 °C -11.3 °C 33948 hPa Calm   5.1 km/h 84 % 0 mm
23:37 -9.8 °C -11.2 °C 33948 hPa Calm   5.1 km/h 85 % 0 mm
23:42 -9.9 °C -11.3 °C 33948 hPa Calm   5.1 km/h 85 % 0 mm
23:47 -10 °C -11.3 °C 33948 hPa Calm   2.6 km/h 86 % 0 mm
23:52 -10.1 °C -11.2 °C 33948 hPa Calm   2.6 km/h 87 % 0 mm
23:57 -10.1 °C -11.3 °C 33948 hPa Calm   2.6 km/h 87 % 0 mm
Meteo18
Compliments of Weather Underground - 4 mb

Script developed by  Jim McMurry - jmcmurry@mwt.net Adapted for the template by  Wim van der Kuil - Leuven-Template.eu

You find our weather info also at:

European Weather Network

Weather Underground

Equipment we use:

Weather-station
Davis Vue

Weather-program
Meteobridge

Weather-server
Raspberry PI 2 B+

Provider
1 and 1

Davis Vue

Meteobridge

Raspberry PI 2 B+

1 and 1